Terminal Aerodrome Forecast
Issued by NWS Cleveland, OH

Home | Current Version | Previous Version | Text Only | Print | Product List | Glossary On
Versions: 1 2 3 4 5 6 7 8 9 10 11 12 13 14 15 16 17 18
000
FTUS41 KCLE 300500 RRA
TAFTOL
TAF
KTOL 300541Z 3006/3106 32015G25KT P6SM SCT025 OVC035
      TEMPO 3006/3008 3SM -SHSN OVC025
     FM302000 31005KT P6SM SCT035
     FM310000 VRB03KT P6SM SKC=

USA.gov is the U.S. government's official web portal to all federal, state and local government web resources and services.